地図

経路データ

SID SEASON NUMBER BASIN SUBBASIN NAME ISO_TIME NATURE LAT LON WMO_WIND WMO_PRES WMO_AGENCY TRACK_TYPE DIST2LAND LANDFALL IFLAG USA_AGENCY USA_ATCF_ID USA_LAT USA_LON USA_RECORD USA_STATUS USA_WIND USA_PRES USA_SSHS USA_R34_NE USA_R34_SE USA_R34_SW USA_R34_NW USA_R50_NE USA_R50_SE USA_R50_SW USA_R50_NW USA_R64_NE USA_R64_SE USA_R64_SW USA_R64_NW USA_POCI USA_ROCI USA_RMW USA_EYE TOKYO_LAT TOKYO_LON TOKYO_GRADE TOKYO_WIND TOKYO_PRES TOKYO_R50_DIR TOKYO_R50_LONG TOKYO_R50_SHORT TOKYO_R30_DIR TOKYO_R30_LONG TOKYO_R30_SHORT TOKYO_LAND CMA_LAT CMA_LON CMA_CAT CMA_WIND CMA_PRES HKO_LAT HKO_LON HKO_CAT HKO_WIND HKO_PRES NEWDELHI_LAT NEWDELHI_LON NEWDELHI_GRADE NEWDELHI_WIND NEWDELHI_PRES NEWDELHI_CI NEWDELHI_DP NEWDELHI_POCI REUNION_LAT REUNION_LON REUNION_TYPE REUNION_WIND REUNION_PRES REUNION_TNUM REUNION_CI REUNION_RMW REUNION_R34_NE REUNION_R34_SE REUNION_R34_SW REUNION_R34_NW REUNION_R50_NE REUNION_R50_SE REUNION_R50_SW REUNION_R50_NW REUNION_R64_NE REUNION_R64_SE REUNION_R64_SW REUNION_R64_NW BOM_LAT BOM_LON BOM_TYPE BOM_WIND BOM_PRES BOM_TNUM BOM_CI BOM_RMW BOM_R34_NE BOM_R34_SE BOM_R34_SW BOM_R34_NW BOM_R50_NE BOM_R50_SE BOM_R50_SW BOM_R50_NW BOM_R64_NE BOM_R64_SE BOM_R64_SW BOM_R64_NW BOM_ROCI BOM_POCI BOM_EYE BOM_POS_METHOD BOM_PRES_METHOD NADI_LAT NADI_LON NADI_CAT NADI_WIND NADI_PRES WELLINGTON_LAT WELLINGTON_LON WELLINGTON_WIND WELLINGTON_PRES DS824_LAT DS824_LON DS824_STAGE DS824_WIND DS824_PRES TD9636_LAT TD9636_LON TD9636_STAGE TD9636_WIND TD9636_PRES TD9635_LAT TD9635_LON TD9635_WIND TD9635_PRES TD9635_ROCI NEUMANN_LAT NEUMANN_LON NEUMANN_CLASS NEUMANN_WIND NEUMANN_PRES MLC_LAT MLC_LON MLC_CLASS MLC_WIND MLC_PRES USA_GUST BOM_GUST BOM_GUST_PER REUNION_GUST REUNION_GUST_PER USA_SEAHGT USA_SEARAD_NE USA_SEARAD_SE USA_SEARAD_SW USA_SEARAD_NW STORM_SPEED STORM_DIR
1949255N31287 1949 74 NA NA NOT_NAMED 1949-09-11 18:00:00 ET 31.0000 -72.8000 40 hurdat_atl main 537 508 O_____________ hurdat_atl AL071949 31.0000 -72.8000 EX 40 -4 11 19
1949255N31287 1949 74 NA NA NOT_NAMED 1949-09-11 21:00:00 ET 31.5252 -72.5834 main 508 477 P_____________ AL071949 31.5252 -72.5834 EX 40 -4 10 14
1949255N31287 1949 74 NA NA NOT_NAMED 1949-09-12 00:00:00 ET 32.0000 -72.5000 40 hurdat_atl main 477 440 O_____________ hurdat_atl AL071949 32.0000 -72.5000 EX 40 -4 9 356
1949255N31287 1949 74 NA NA NOT_NAMED 1949-09-12 03:00:00 ET 32.3873 -72.6522 main 433 390 P_____________ AL071949 32.3873 -72.6522 EX 40 -4 8 329
1949255N31287 1949 74 NA NA NOT_NAMED 1949-09-12 06:00:00 ET 32.7000 -73.0000 40 hurdat_atl main 390 340 O_____________ hurdat_atl AL071949 32.7000 -73.0000 EX 40 -4 9 311
1949255N31287 1949 74 NA NA NOT_NAMED 1949-09-12 09:00:00 ET 32.9726 -73.4551 main 333 283 P_____________ AL071949 32.9726 -73.4551 EX 40 -4 10 301
1949255N31287 1949 74 NA NA NOT_NAMED 1949-09-12 12:00:00 TS 33.2000 -74.0000 40 hurdat_atl main 283 234 O_____________ hurdat_atl AL071949 33.2000 -74.0000 TS 40 0 10 296
1949255N31287 1949 74 NA NA NOT_NAMED 1949-09-12 15:00:00 TS 33.4147 -74.5352 main 234 177 P_____________ AL071949 33.4147 -74.5352 TS 42 0 10 294
1949255N31287 1949 74 NA NA NOT_NAMED 1949-09-12 18:00:00 TS 33.6000 -75.1000 45 hurdat_atl main 177 133 O_____________ hurdat_atl AL071949 33.6000 -75.1000 TS 45 0 10 290
1949255N31287 1949 74 NA NA NOT_NAMED 1949-09-12 21:00:00 TS 33.7572 -75.6854 main 124 91 P_____________ AL071949 33.7572 -75.6854 TS 42 0 10 287
1949255N31287 1949 74 NA NA NOT_NAMED 1949-09-13 00:00:00 TS 33.9000 -76.3000 40 hurdat_atl main 91 66 O_____________ hurdat_atl AL071949 33.9000 -76.3000 TS 40 0 11 285
1949255N31287 1949 74 NA NA NOT_NAMED 1949-09-13 03:00:00 TS 34.0505 -77.0249 main 57 14 P_____________ AL071949 34.0505 -77.0249 TS 37 0 11 286
1949255N31287 1949 74 NA NA NOT_NAMED 1949-09-13 06:00:00 TS 34.2000 -77.6000 35 hurdat_atl main 14 0 O_____________ hurdat_atl AL071949 34.2000 -77.6000 TS 35 0 8 291
1949255N31287 1949 74 NA NA NOT_NAMED 1949-09-13 08:00:00 TS 34.3000 -77.8000 35 hurdat_atl main 0 0 O_____________ hurdat_atl AL071949 34.3000 -77.8000 L TS 35 0 7 293
1949255N31287 1949 74 NA NA NOT_NAMED 1949-09-13 09:00:00 TS 34.3363 -77.9917 main 0 0 P_____________ AL071949 34.3363 -77.9917 TS 33 -1 11 278
1949255N31287 1949 74 NA NA NOT_NAMED 1949-09-13 12:00:00 TS 34.4000 -78.7000 30 hurdat_atl main 0 0 O_____________ hurdat_atl AL071949 34.4000 -78.7000 TD 30 -1 8 277
1949255N31287 1949 74 NA NA NOT_NAMED 1949-09-13 15:00:00 TS 34.4327 -79.0152 main 0 0 P_____________ AL071949 34.4327 -79.0152 TD 27 -1 3 287
1949255N31287 1949 74 NA NA NOT_NAMED 1949-09-13 18:00:00 TS 34.5000 -79.1000 25 hurdat_atl main 0 0 O_____________ hurdat_atl AL071949 34.5000 -79.1000 TD 25 -1 3 334
1949255N31287 1949 74 NA NA NOT_NAMED 1949-09-13 21:00:00 TS 34.6774 -79.1599 main 0 0 P_____________ AL071949 34.6774 -79.1599 TD 25 -1 4 0
1949255N31287 1949 74 NA NA NOT_NAMED 1949-09-14 00:00:00 TS 34.9000 -79.1000 25 hurdat_atl main 0 0 O_____________ hurdat_atl AL071949 34.9000 -79.1000 TD 25 -1 4 23
1949255N31287 1949 74 NA NA NOT_NAMED 1949-09-14 03:00:00 TS 35.0924 -78.9524 main 0 0 P_____________ AL071949 35.0924 -78.9524 TD 25 -1 5 39
1949255N31287 1949 74 NA NA NOT_NAMED 1949-09-14 06:00:00 TS 35.3000 -78.7000 25 hurdat_atl main 0 0 O_____________ hurdat_atl AL071949 35.3000 -78.7000 TD 25 -1 6 48
1949255N31287 1949 74 NA NA NOT_NAMED 1949-09-14 09:00:00 TS 35.5201 -78.3722 main 0 0 P_____________ AL071949 35.5201 -78.3722 TD 25 -1 8 49
1949255N31287 1949 74 NA NA NOT_NAMED 1949-09-14 12:00:00 TS 35.8000 -78.0000 25 hurdat_atl main 0 0 O_____________ hurdat_atl AL071949 35.8000 -78.0000 TD 25 -1 9 42
1949255N31287 1949 74 NA NA NOT_NAMED 1949-09-14 15:00:00 TS 36.1726 -77.6433 main 0 0 P_____________ AL071949 36.1726 -77.6433 TD 25 -1 10 35
1949255N31287 1949 74 NA NA NOT_NAMED 1949-09-14 18:00:00 TS 36.6000 -77.3000 25 hurdat_atl main 0 O_____________ hurdat_atl AL071949 36.6000 -77.3000 TD 25 -1 10 33

IBTrACS Databaseについて

本データベースは、米国NOAAが公開する1842年以降の世界の熱帯低気圧のベストトラックデータアーカイブInternational Best Track Archive for Climate Stewardship (IBTrACS)を、ウェブで閲覧しやすい形式に変換したものです。

最終更新日:2021-10-21